createdAt,value
2019-04-19T00:00:37.106Z,12.80
2019-04-19T00:03:06.678Z,12.80
2019-04-19T00:05:52.477Z,12.70
2019-04-19T00:08:37.301Z,12.70
2019-04-19T00:11:06.522Z,12.60
2019-04-19T00:13:24.059Z,12.50
2019-04-19T00:15:53.959Z,12.50
2019-04-19T00:18:24.563Z,12.40
2019-04-19T00:21:13.676Z,12.40
2019-04-19T00:23:33.131Z,12.30
2019-04-19T00:25:56.144Z,12.30
2019-04-19T00:28:35.430Z,12.30
2019-04-19T00:31:13.397Z,12.20
2019-04-19T00:33:34.458Z,12.10
2019-04-19T00:36:02.591Z,12.10
2019-04-19T00:38:45.579Z,12.10
2019-04-19T00:41:35.836Z,12.00
2019-04-19T00:44:14.909Z,11.90
2019-04-19T00:46:53.887Z,11.90
2019-04-19T00:49:13.369Z,11.80
2019-04-19T00:51:51.641Z,11.70
2019-04-19T00:54:13.021Z,11.70
2019-04-19T00:56:46.710Z,11.60
2019-04-19T00:59:10.097Z,11.60
2019-04-19T01:01:37.514Z,11.50
2019-04-19T01:04:13.724Z,11.50
2019-04-19T01:06:43.883Z,11.50
2019-04-19T01:09:27.895Z,11.40
2019-04-19T01:11:55.639Z,11.40
2019-04-19T01:14:26.976Z,11.30
2019-04-19T01:16:54.891Z,11.30
2019-04-19T01:19:17.540Z,11.30
2019-04-19T01:21:44.963Z,11.20
2019-04-19T01:24:17.971Z,11.20
2019-04-19T01:26:48.702Z,11.10
2019-04-19T01:29:19.390Z,11.10
2019-04-19T01:31:54.526Z,11.10
2019-04-19T01:34:24.879Z,11.00
2019-04-19T01:36:52.681Z,11.00
2019-04-19T01:39:36.545Z,11.00
2019-04-19T01:42:04.523Z,10.90
2019-04-19T01:44:47.461Z,10.90
2019-04-19T01:47:34.627Z,10.80
2019-04-19T01:50:13.236Z,10.80
2019-04-19T01:52:55.893Z,10.80
2019-04-19T01:55:10.057Z,10.70
2019-04-19T01:57:32.450Z,10.70
2019-04-19T02:00:03.875Z,10.70
2019-04-19T02:02:37.845Z,10.60
2019-04-19T02:05:09.775Z,10.60
2019-04-19T02:07:36.199Z,10.60
2019-04-19T02:10:22.800Z,10.50
2019-04-19T02:12:52.732Z,10.50
2019-04-19T02:15:24.637Z,10.50
2019-04-19T02:17:48.321Z,10.40
2019-04-19T02:20:17.027Z,10.40
2019-04-19T02:22:48.574Z,10.40
2019-04-19T02:25:21.808Z,10.30
2019-04-19T02:27:50.448Z,10.30
2019-04-19T02:30:31.371Z,10.30
2019-04-19T02:33:15.354Z,10.20
2019-04-19T02:35:51.208Z,10.30
2019-04-19T02:38:24.944Z,10.20
2019-04-19T02:43:32.088Z,10.20
2019-04-19T02:46:09.848Z,10.10
2019-04-19T02:48:29.575Z,10.10
2019-04-19T02:53:30.062Z,10.00
2019-04-19T02:56:05.296Z,10.00
2019-04-19T02:58:33.853Z,10.00
2019-04-19T03:01:18.693Z,10.00
2019-04-19T03:03:39.775Z,9.90
2019-04-19T03:06:08.985Z,9.90
2019-04-19T03:08:22.900Z,10.00
2019-04-19T03:11:03.148Z,10.00
2019-04-19T03:13:41.248Z,10.10
2019-04-19T03:16:11.781Z,10.20
2019-04-19T03:18:42.378Z,10.20
2019-04-19T03:21:08.351Z,10.20
2019-04-19T03:23:41.352Z,10.10
2019-04-19T03:26:17.129Z,10.00
2019-04-19T03:28:38.720Z,9.90
2019-04-19T03:33:59.545Z,9.70
2019-04-19T03:36:22.121Z,9.60
2019-04-19T03:38:48.433Z,9.60
2019-04-19T03:41:40.788Z,9.50
2019-04-19T03:44:25.365Z,9.40
2019-04-19T03:47:04.914Z,9.40
2019-04-19T03:54:31.514Z,9.20
2019-04-19T03:57:02.739Z,9.30
2019-04-19T03:59:16.216Z,9.50
2019-04-19T04:01:51.012Z,9.60
2019-04-19T04:04:22.266Z,9.60
2019-04-19T04:06:49.008Z,9.50
2019-04-19T04:09:39.981Z,9.50
2019-04-19T04:12:40.532Z,9.40
2019-04-19T04:15:38.369Z,9.50
2019-04-19T04:17:52.481Z,9.70
2019-04-19T04:20:22.185Z,9.70
2019-04-19T04:22:55.594Z,9.70
2019-04-19T04:25:28.300Z,9.80
2019-04-19T04:28:05.074Z,9.90
2019-04-19T04:30:31.664Z,9.80
2019-04-19T04:33:05.247Z,9.70
2019-04-19T04:35:41.395Z,9.70
2019-04-19T04:38:09.189Z,9.70
2019-04-19T04:40:29.708Z,9.60
2019-04-19T04:43:15.041Z,9.50
2019-04-19T04:46:01.843Z,9.40
2019-04-19T04:48:40.126Z,9.30
2019-04-19T04:51:26.022Z,9.30
2019-04-19T04:53:42.801Z,9.30
2019-04-19T04:56:17.181Z,9.30
2019-04-19T04:58:49.068Z,9.20
2019-04-19T05:01:29.040Z,9.20
2019-04-19T05:04:08.970Z,9.30
2019-04-19T05:06:34.907Z,9.30
2019-04-19T05:09:10.708Z,9.30
2019-04-19T05:11:37.698Z,9.40
2019-04-19T05:14:14.150Z,9.40
2019-04-19T05:16:53.701Z,9.40
2019-04-19T05:19:19.826Z,9.50
2019-04-19T05:21:46.295Z,9.50
2019-04-19T05:24:20.992Z,9.60
2019-04-19T05:27:04.746Z,9.60
2019-04-19T05:29:18.741Z,9.70
2019-04-19T05:31:41.223Z,9.80
2019-04-19T05:34:28.109Z,9.80
2019-04-19T05:36:55.228Z,9.90
2019-04-19T05:39:46.178Z,10.00
2019-04-19T05:42:33.082Z,10.10
2019-04-19T05:45:20.644Z,10.10
2019-04-19T05:47:31.045Z,10.20
2019-04-19T05:50:07.510Z,10.20
2019-04-19T05:52:39.435Z,10.30
2019-04-19T05:54:49.851Z,10.40
2019-04-19T05:57:35.960Z,10.40
2019-04-19T05:59:59.749Z,10.50
2019-04-19T06:02:28.502Z,10.60
2019-04-19T06:05:18.854Z,10.60
2019-04-19T06:07:41.782Z,10.70
2019-04-19T06:09:55.924Z,10.80
2019-04-19T06:12:29.942Z,10.90
2019-04-19T06:15:17.798Z,11.00
2019-04-19T06:18:09.816Z,11.10
2019-04-19T06:20:44.380Z,11.10
2019-04-19T06:23:12.995Z,11.20
2019-04-19T06:26:04.765Z,11.30
2019-04-19T06:28:25.990Z,11.50
2019-04-19T06:30:50.563Z,11.60
2019-04-19T06:33:21.561Z,11.80
2019-04-19T06:35:43.848Z,11.80
2019-04-19T06:38:07.434Z,12.00
2019-04-19T06:40:39.498Z,12.30
2019-04-19T06:43:13.872Z,12.60
2019-04-19T06:45:55.596Z,13.00
2019-04-19T06:48:16.225Z,13.20
2019-04-19T06:50:44.833Z,13.30
2019-04-19T06:53:12.688Z,13.60
2019-04-19T06:55:47.366Z,13.40
2019-04-19T06:58:20.433Z,13.50
2019-04-19T07:00:59.519Z,13.50
2019-04-19T07:03:16.114Z,13.50
2019-04-19T07:06:02.031Z,13.60
2019-04-19T07:08:59.683Z,13.60
2019-04-19T07:11:11.624Z,13.70
2019-04-19T07:13:32.773Z,13.80
2019-04-19T07:18:38.113Z,14.00
2019-04-19T07:21:16.288Z,14.10
2019-04-19T07:23:45.083Z,14.20
2019-04-19T07:26:20.342Z,14.40
2019-04-19T07:28:33.230Z,14.50
2019-04-19T07:31:03.510Z,14.60
2019-04-19T07:33:44.178Z,14.70
2019-04-19T07:36:27.025Z,14.80
2019-04-19T07:38:53.403Z,15.00
2019-04-19T07:41:21.500Z,15.10
2019-04-19T07:44:19.668Z,15.30
2019-04-19T07:47:06.623Z,15.40
2019-04-19T07:49:23.328Z,15.60
2019-04-19T07:52:02.634Z,15.80
2019-04-19T07:54:28.861Z,15.90
2019-04-19T07:57:22.648Z,16.10
2019-04-19T07:59:49.114Z,16.20
2019-04-19T08:04:58.750Z,16.60
2019-04-19T08:07:32.318Z,16.70
2019-04-19T08:09:58.544Z,16.90
2019-04-19T08:12:25.779Z,17.10
2019-04-19T08:27:21.670Z,18.40
2019-04-19T08:29:51.252Z,18.50
2019-04-19T08:32:13.687Z,18.60
2019-04-19T08:34:43.375Z,18.80
2019-04-19T08:37:23.903Z,18.90
2019-04-19T08:39:58.508Z,19.10
2019-04-19T08:42:35.719Z,19.20
2019-04-19T08:44:57.717Z,19.40
2019-04-19T08:47:42.390Z,19.60
2019-04-19T08:50:34.945Z,19.70
2019-04-19T08:53:24.311Z,19.90
2019-04-19T08:55:58.228Z,20.10
2019-04-19T08:58:23.864Z,20.30
2019-04-19T09:01:07.612Z,20.40
